Time;durP1;ratioP1;P1;durP2;ratioP2;P2;SDS_P1;SDS_P2;PMS_P1;PMS_P2;Temp;Humidity;BMP_temperature;BMP_pressure;BME280_temperature;BME280_humidity;BME280_pressure;Samples;Min_cycle;Max_cycle;Signal;HPM_P1;HPM_P2
2022/07/25 00:02:17;;;;;;;9.60;7.23;;;;;;;20.34;70.78;101328.44;5098650;28;20200;-74
2022/07/25 00:04:43;;;;;;;10.53;7.90;;;;;;;20.38;69.82;101325.78;5091388;28;20220;-73
2022/07/25 00:07:08;;;;;;;10.10;8.27;;;;;;;20.40;69.49;101315.38;5089949;28;20184;-74
2022/07/25 00:09:34;;;;;;;8.23;7.40;;;;;;;20.36;70.04;101314.53;5072921;28;20298;-74
2022/07/25 00:11:59;;;;;;;8.70;7.73;;;;;;;20.36;69.45;101317.13;5078031;28;20564;-73
2022/07/25 00:14:25;;;;;;;10.17;8.10;;;;;;;20.38;69.18;101315.38;5052700;28;20189;-74
2022/07/25 00:16:50;;;;;;;9.67;8.63;;;;;;;20.32;69.27;101310.22;5070170;28;20928;-74
2022/07/25 00:19:16;;;;;;;8.70;8.00;;;;;;;20.28;69.93;101298.19;5070034;28;20698;-72
2022/07/25 00:21:42;;;;;;;8.80;7.90;;;;;;;20.22;70.40;101300.00;5070233;28;20209;-71
2022/07/25 00:24:07;;;;;;;8.83;7.93;;;;;;;20.13;70.87;101300.94;5052461;28;20185;-74
2022/07/25 00:26:33;;;;;;;10.47;7.90;;;;;;;20.09;70.75;101301.84;5070114;28;20184;-74
2022/07/25 00:28:58;;;;;;;9.10;8.30;;;;;;;20.07;70.98;101303.59;5070004;28;20237;-72
2022/07/25 00:31:23;;;;;;;8.43;7.73;;;;;;;20.03;71.13;101301.06;5070519;28;20699;-74
2022/07/25 00:33:49;;;;;;;9.53;7.47;;;;;;;19.97;71.40;101295.91;5070270;28;20173;-73
2022/07/25 00:36:14;;;;;;;8.53;7.73;;;;;;;19.93;71.18;101302.03;5070046;28;20228;-73
2022/07/25 00:38:40;;;;;;;8.40;7.70;;;;;;;19.86;71.79;101297.78;5069844;28;20227;-74
2022/07/25 00:41:05;;;;;;;9.33;8.40;;;;;;;19.88;72.29;101298.63;5070109;28;20263;-74
2022/07/25 00:43:31;;;;;;;9.27;8.47;;;;;;;19.78;72.66;101294.41;5070593;28;20223;-73
2022/07/25 00:45:57;;;;;;;8.60;7.70;;;;;;;19.73;72.66;101297.06;5052314;28;20196;-72
2022/07/25 00:48:24;;;;;;;9.00;8.10;;;;;;;19.65;72.96;101298.00;5069859;28;20722;-73
2022/07/25 00:50:49;;;;;;;9.93;8.67;;;;;;;19.69;72.90;101297.09;5069882;28;20284;-74
2022/07/25 00:53:15;;;;;;;8.13;7.43;;;;;;;19.58;73.42;101293.75;5051958;28;20297;-72
2022/07/25 00:55:41;;;;;;;10.73;8.50;;;;;;;19.55;73.78;101298.97;5069994;28;20181;-74
2022/07/25 00:58:06;;;;;;;8.83;7.97;;;;;;;19.50;73.78;101296.44;5046649;28;20185;-73
2022/07/25 01:00:32;;;;;;;7.80;7.10;;;;;;;19.42;74.80;101294.75;5051774;28;20209;-74
2022/07/25 01:02:57;;;;;;;9.43;8.30;;;;;;;19.40;74.56;101299.97;5069391;28;20192;-74
2022/07/25 01:05:23;;;;;;;10.47;7.60;;;;;;;19.39;74.27;101295.66;5069555;28;20181;-74
2022/07/25 01:07:50;;;;;;;9.00;8.30;;;;;;;19.35;74.41;101290.50;5034910;28;20180;-74
2022/07/25 01:10:15;;;;;;;8.50;7.73;;;;;;;19.29;74.62;101293.16;5069095;28;20211;-74
2022/07/25 01:12:48;;;;;;;9.37;8.37;;;;;;;19.29;74.75;101295.75;5051558;28;20256;-73
2022/07/25 01:15:16;;;;;;;10.07;8.00;;;;;;;19.29;74.58;101285.34;5069542;28;20558;-72
2022/07/25 01:17:41;;;;;;;9.80;7.70;;;;;;;19.24;74.52;101287.13;5068729;28;20222;-72
2022/07/25 01:20:16;;;;;;;10.83;7.87;;;;;;;19.20;74.81;101285.44;5069148;28;20212;-72
2022/07/25 01:22:42;;;;;;;9.30;8.20;;;;;;;19.10;75.71;101279.44;5066080;28;20217;-73
2022/07/25 01:25:08;;;;;;;7.97;7.10;;;;;;;19.11;75.63;101275.97;5069232;28;20200;-72
2022/07/25 01:27:34;;;;;;;9.27;8.30;;;;;;;19.03;75.53;101272.56;5051295;28;20710;-74
2022/07/25 01:29:59;;;;;;;9.07;8.17;;;;;;;18.92;75.98;101270.91;5067131;28;20213;-70
2022/07/25 01:32:25;;;;;;;9.03;7.73;;;;;;;18.95;75.37;101265.72;5060072;28;20199;-72
2022/07/25 01:34:50;;;;;;;9.47;8.03;;;;;;;18.91;75.39;101264.88;5069503;28;20246;-73
2022/07/25 01:37:15;;;;;;;9.93;7.47;;;;;;;18.94;74.91;101259.69;5069040;28;20264;-74
2022/07/25 01:39:41;;;;;;;8.87;7.97;;;;;;;18.88;74.78;101251.91;5068975;28;20196;-74
2022/07/25 01:42:06;;;;;;;8.83;7.37;;;;;;;18.85;75.13;101264.06;5069270;28;20744;-74
2022/07/25 01:44:32;;;;;;;7.80;7.10;;;;;;;18.85;74.53;101264.06;5068836;28;20195;-74
2022/07/25 01:46:57;;;;;;;8.77;7.40;;;;;;;18.79;74.66;101264.97;5050768;28;20200;-72
2022/07/25 01:49:25;;;;;;;8.93;7.60;;;;;;;18.76;74.92;101261.53;5069415;28;20209;-73
2022/07/25 01:51:51;;;;;;;8.13;7.33;;;;;;;18.74;74.82;101250.31;5069097;28;20169;-74
2022/07/25 01:54:16;;;;;;;8.40;6.43;;;;;;;18.75;74.34;101252.88;5068888;28;20600;-74
2022/07/25 01:56:43;;;;;;;8.13;6.83;;;;;;;18.72;74.16;101246.84;5066046;28;20645;-73
2022/07/25 01:59:09;;;;;;;9.60;6.73;;;;;;;18.70;74.04;101249.47;5068820;28;20191;-74
2022/07/25 02:01:35;;;;;;;7.70;6.97;;;;;;;18.67;74.61;101239.13;5074988;28;20208;-74
2022/07/25 02:04:01;;;;;;;7.10;6.40;;;;;;;18.66;74.31;101245.16;5080701;28;20708;-74
2022/07/25 02:06:26;;;;;;;7.57;6.87;;;;;;;18.61;74.29;101236.56;5050162;28;20177;-74
2022/07/25 02:08:52;;;;;;;7.30;6.60;;;;;;;18.63;73.81;101242.59;5068848;28;20215;-74
2022/07/25 02:11:17;;;;;;;7.67;6.67;;;;;;;18.63;73.54;101237.41;5050700;28;20209;-74
2022/07/25 02:13:43;;;;;;;9.20;6.20;;;;;;;18.54;73.96;101232.28;5068916;28;20273;-74
2022/07/25 02:16:09;;;;;;;7.93;6.10;;;;;;;18.49;73.63;101236.66;5050738;28;20189;-72
2022/07/25 02:18:34;;;;;;;7.67;6.30;;;;;;;18.43;74.03;101228.03;5068949;28;20177;-74
2022/07/25 02:21:00;;;;;;;6.23;5.63;;;;;;;18.44;73.57;101232.34;5068761;28;20216;-72
2022/07/25 02:23:25;;;;;;;5.87;5.27;;;;;;;18.46;72.75;101228.88;5067290;28;20181;-74
2022/07/25 02:25:51;;;;;;;8.37;5.70;;;;;;;18.42;72.39;101224.56;5068093;28;20185;-74
2022/07/25 02:28:16;;;;;;;5.90;5.40;;;;;;;18.42;72.32;101221.16;5068312;28;20188;-73
2022/07/25 02:30:42;;;;;;;7.30;5.30;;;;;;;18.49;70.72;101213.31;5071814;28;21004;-74
2022/07/25 02:33:08;;;;;;;5.53;5.03;;;;;;;18.50;71.60;101206.38;5072730;28;20220;-72
2022/07/25 02:35:33;;;;;;;6.03;5.10;;;;;;;18.46;71.25;101202.94;5072157;28;20192;-73
2022/07/25 02:37:59;;;;;;;5.23;4.60;;;;;;;18.41;71.41;101202.13;5072088;28;20188;-73
2022/07/25 02:40:25;;;;;;;7.13;5.27;;;;;;;18.40;71.23;101200.41;5072201;28;20687;-72
2022/07/25 02:42:51;;;;;;;6.47;4.73;;;;;;;18.39;69.94;101198.69;5071822;28;20255;-72
2022/07/25 02:45:16;;;;;;;5.50;4.27;;;;;;;18.39;70.67;101192.63;5049177;28;20276;-74
2022/07/25 02:47:42;;;;;;;6.03;4.90;;;;;;;18.39;71.05;101188.31;5054153;28;20204;-74
2022/07/25 02:50:08;;;;;;;7.03;4.87;;;;;;;18.36;70.35;101203.00;5072089;28;20216;-74
2022/07/25 02:52:33;;;;;;;5.40;4.70;;;;;;;18.32;71.15;101199.53;5072225;28;20268;-72
2022/07/25 02:54:59;;;;;;;4.70;4.20;;;;;;;18.35;69.71;101193.50;5072135;28;20301;-73
2022/07/25 02:57:24;;;;;;;6.13;5.17;;;;;;;18.30;70.80;101190.94;5071858;28;20189;-73
2022/07/25 02:59:50;;;;;;;5.00;4.50;;;;;;;18.29;70.95;101184.00;5054578;28;20216;-73
2022/07/25 03:02:15;;;;;;;5.73;4.17;;;;;;;18.31;69.69;101184.88;5072158;28;20217;-73
2022/07/25 03:04:40;;;;;;;4.57;4.17;;;;;;;18.32;70.32;101186.56;5071962;28;20177;-74
2022/07/25 03:07:06;;;;;;;5.87;4.50;;;;;;;18.36;69.02;101179.66;5071399;28;20645;-73
2022/07/25 03:09:31;;;;;;;4.50;4.10;;;;;;;18.33;69.50;101180.53;5071743;28;20200;-74
2022/07/25 03:11:57;;;;;;;7.43;4.43;;;;;;;18.30;69.58;101177.97;5071972;28;20739;-74
2022/07/25 03:14:22;;;;;;;3.93;3.60;;;;;;;18.27;70.03;101180.56;5071746;28;20853;-72
2022/07/25 03:16:47;;;;;;;5.23;4.33;;;;;;;18.28;70.02;101181.44;5071000;28;20279;-74
2022/07/25 03:19:13;;;;;;;4.77;4.27;;;;;;;18.29;69.17;101175.38;5071687;28;20284;-73
2022/07/25 03:21:39;;;;;;;4.10;3.70;;;;;;;18.27;69.41;101172.78;5071554;28;20205;-72
2022/07/25 03:24:04;;;;;;;4.50;4.07;;;;;;;18.33;68.23;101175.34;5070767;28;20631;-71
2022/07/25 03:26:30;;;;;;;4.23;3.87;;;;;;;18.34;68.44;101169.28;5036249;28;20276;-73
2022/07/25 03:28:55;;;;;;;5.30;4.47;;;;;;;18.32;68.94;101168.44;5071343;28;20195;-73
2022/07/25 03:31:21;;;;;;;6.67;4.40;;;;;;;18.33;68.41;101161.56;5071245;28;20259;-73
2022/07/25 03:33:46;;;;;;;5.13;3.80;;;;;;;18.36;68.57;101169.28;5071835;28;20177;-74
2022/07/25 03:36:11;;;;;;;4.53;4.00;;;;;;;18.32;68.34;101163.25;5072361;28;20219;-72
2022/07/25 03:38:38;;;;;;;6.40;4.10;;;;;;;18.29;68.92;101159.81;5079350;28;20181;-73
2022/07/25 03:41:04;;;;;;;4.20;3.80;;;;;;;18.28;68.83;101151.16;5071076;28;20212;-74
2022/07/25 03:43:30;;;;;;;5.00;3.60;;;;;;;18.23;69.96;101147.75;5053466;28;20220;-73
2022/07/25 03:45:55;;;;;;;5.20;3.50;;;;;;;18.26;68.71;101139.09;5071096;28;20568;-74
2022/07/25 03:48:21;;;;;;;3.77;3.40;;;;;;;18.33;67.33;101135.63;5070632;28;20177;-73
2022/07/25 03:50:46;;;;;;;6.03;3.70;;;;;;;18.41;66.75;101128.63;5053270;28;20201;-73
2022/07/25 03:53:12;;;;;;;6.30;3.27;;;;;;;18.48;66.49;101122.53;5070683;28;20188;-74
2022/07/25 03:55:38;;;;;;;5.33;3.37;;;;;;;18.55;65.73;101116.41;5071126;28;20629;-72
2022/07/25 03:58:04;;;;;;;4.00;3.60;;;;;;;18.59;65.79;101111.19;5070721;28;20220;-73
2022/07/25 04:00:29;;;;;;;5.97;3.70;;;;;;;18.61;65.89;101099.03;5070947;28;20240;-72
2022/07/25 04:02:55;;;;;;;6.53;3.80;;;;;;;18.64;66.16;101101.63;5070730;28;20591;-73
2022/07/25 04:05:20;;;;;;;5.87;3.67;;;;;;;18.61;66.69;101095.59;5070716;28;20193;-74
2022/07/25 04:07:46;;;;;;;3.77;3.23;;;;;;;18.67;65.41;101095.53;5052554;28;20197;-72
2022/07/25 04:10:11;;;;;;;4.43;3.60;;;;;;;18.69;66.66;101093.78;5071091;28;20205;-74
2022/07/25 04:12:37;;;;;;;5.40;3.17;;;;;;;18.74;65.41;101086.84;5070873;28;20192;-74
2022/07/25 04:15:03;;;;;;;5.23;3.53;;;;;;;18.77;65.10;101094.56;5071012;28;20180;-74
2022/07/25 04:17:29;;;;;;;5.83;3.33;;;;;;;18.82;64.92;101090.19;5070497;28;20197;-73
2022/07/25 04:19:54;;;;;;;4.13;3.33;;;;;;;18.85;65.30;101092.78;5052323;28;20212;-72
2022/07/25 04:22:20;;;;;;;3.70;3.13;;;;;;;18.89;64.78;101094.47;5070479;28;20735;-71
2022/07/25 04:24:45;;;;;;;4.67;2.97;;;;;;;18.96;64.44;101083.13;5070778;28;20189;-74
2022/07/25 04:27:11;;;;;;;5.30;3.33;;;;;;;19.01;64.11;101077.00;5070258;28;20725;-74
2022/07/25 04:29:36;;;;;;;4.27;3.47;;;;;;;19.09;63.94;101076.91;5052402;28;20744;-74
2022/07/25 04:32:02;;;;;;;4.20;3.43;;;;;;;19.16;63.73;101071.63;5070242;28;20196;-74
2022/07/25 04:34:27;;;;;;;3.87;3.47;;;;;;;19.20;63.69;101067.28;5085696;28;20197;-73
2022/07/25 04:36:53;;;;;;;5.20;3.40;;;;;;;19.26;63.23;101067.25;5070188;28;20201;-73
2022/07/25 04:39:18;;;;;;;6.63;3.23;;;;;;;19.32;63.17;101060.25;5069801;28;20200;-74
2022/07/25 04:41:44;;;;;;;3.43;2.90;;;;;;;19.39;63.45;101063.63;5069984;28;20212;-73
2022/07/25 04:44:09;;;;;;;4.10;3.70;;;;;;;19.46;63.10;101050.53;5069915;28;20192;-73
2022/07/25 04:46:35;;;;;;;5.47;3.10;;;;;;;19.56;62.49;101052.09;5069914;28;20185;-73
2022/07/25 04:49:00;;;;;;;3.90;3.10;;;;;;;19.66;61.93;101051.09;5069630;28;20607;-72
2022/07/25 04:51:25;;;;;;;4.47;3.33;;;;;;;19.73;62.12;101047.53;5069665;28;20205;-73
2022/07/25 04:53:51;;;;;;;4.17;3.17;;;;;;;19.82;62.41;101047.41;5069441;28;20189;-74
2022/07/25 04:56:16;;;;;;;3.70;3.00;;;;;;;19.89;61.49;101045.53;5069529;28;20620;-72
2022/07/25 04:58:42;;;;;;;3.90;3.47;;;;;;;20.01;61.42;101028.03;5070131;28;20848;-74
2022/07/25 05:01:07;;;;;;;4.57;3.40;;;;;;;20.10;61.45;101030.53;5069787;28;20551;-72
2022/07/25 05:03:33;;;;;;;6.27;2.83;;;;;;;20.22;60.60;101030.31;5069965;28;20801;-72
2022/07/25 05:05:58;;;;;;;3.20;2.90;;;;;;;20.34;60.28;101016.22;5069099;28;20177;-73
2022/07/25 05:08:24;;;;;;;3.37;2.97;;;;;;;20.39;60.65;101015.28;5069574;28;20207;-72
2022/07/25 05:10:49;;;;;;;3.33;3.03;;;;;;;20.49;61.13;101016.81;5069633;28;20242;-72
2022/07/25 05:13:15;;;;;;;3.93;3.17;;;;;;;20.61;59.84;101013.13;5069593;28;20259;-72
2022/07/25 05:15:40;;;;;;;4.50;2.60;;;;;;;20.80;58.95;101017.09;5070115;28;20645;-73
2022/07/25 05:18:06;;;;;;;3.67;3.27;;;;;;;20.93;59.27;101009.06;5069942;28;20177;-72
2022/07/25 05:20:31;;;;;;;5.93;3.40;;;;;;;21.10;58.38;101009.56;5085499;28;20236;-73
2022/07/25 05:22:57;;;;;;;3.63;3.00;;;;;;;21.27;58.61;100996.16;5069975;28;20299;-74
2022/07/25 05:25:22;;;;;;;3.17;2.90;;;;;;;21.42;57.61;100998.47;5068983;28;20280;-74
2022/07/25 05:27:47;;;;;;;5.00;2.90;;;;;;;21.57;56.83;100991.16;5051451;28;20231;-74
2022/07/25 05:30:13;;;;;;;3.30;2.90;;;;;;;21.69;56.44;100990.88;5069752;28;20209;-74
2022/07/25 05:32:40;;;;;;;4.67;3.03;;;;;;;21.77;56.82;100982.88;5051929;28;20185;-74
2022/07/25 05:35:06;;;;;;;3.60;3.30;;;;;;;21.84;56.89;100984.47;5069650;28;20643;-74
2022/07/25 05:37:33;;;;;;;3.23;2.90;;;;;;;21.88;56.42;100978.28;5069451;28;20667;-74
2022/07/25 05:39:58;;;;;;;4.23;3.10;;;;;;;22.01;56.50;100980.53;5078281;28;20224;-74
2022/07/25 05:42:24;;;;;;;3.10;2.80;;;;;;;22.07;56.48;100977.75;5089487;28;20658;-74
2022/07/25 05:44:49;;;;;;;5.47;2.90;;;;;;;22.27;55.56;100972.03;5089544;28;20181;-73
2022/07/25 05:47:15;;;;;;;3.47;2.93;;;;;;;22.20;55.63;100965.28;5079818;28;20332;-73
2022/07/25 05:49:41;;;;;;;7.17;2.97;;;;;;;22.20;56.37;100968.72;5068997;28;20857;-74
2022/07/25 05:52:06;;;;;;;4.47;2.93;;;;;;;22.29;55.64;100972.88;5068288;28;20314;-74
2022/07/25 05:54:33;;;;;;;4.17;2.90;;;;;;;22.33;54.54;100971.88;5067968;28;20196;-74
2022/07/25 05:57:00;;;;;;;4.10;2.73;;;;;;;22.40;55.19;100965.59;5064137;28;20192;-74
2022/07/25 05:59:25;;;;;;;4.70;3.20;;;;;;;22.56;55.13;100959.09;5064529;28;20209;-70
2022/07/25 06:01:51;;;;;;;3.37;3.07;;;;;;;22.63;54.32;100955.41;5063154;28;20211;-74
2022/07/25 06:04:16;;;;;;;5.23;3.27;;;;;;;22.76;53.20;100955.94;5067043;28;20223;-75
2022/07/25 06:06:42;;;;;;;5.97;3.20;;;;;;;22.98;51.76;100943.97;5065244;28;20181;-74
2022/07/25 06:09:07;;;;;;;4.50;3.00;;;;;;;23.12;51.68;100940.03;5075657;28;20670;-74
2022/07/25 06:11:32;;;;;;;3.43;3.13;;;;;;;23.35;52.49;100934.13;5093772;28;20184;-75
2022/07/25 06:13:58;;;;;;;3.57;3.00;;;;;;;23.57;51.14;100941.25;5093470;28;20188;-73
2022/07/25 06:16:23;;;;;;;6.10;3.10;;;;;;;23.71;50.20;100954.72;5093157;28;20188;-74
2022/07/25 06:18:49;;;;;;;5.87;2.70;;;;;;;23.94;49.82;100938.31;5075198;28;20677;-75
2022/07/25 06:21:14;;;;;;;5.50;3.30;;;;;;;24.00;49.44;100936.34;5093190;28;20220;-74
2022/07/25 06:23:40;;;;;;;2.93;2.63;;;;;;;24.16;49.28;100928.81;5075064;28;20200;-72
2022/07/25 06:26:09;;;;;;;4.63;3.13;;;;;;;24.12;49.09;100932.47;5093200;28;20184;-75
2022/07/25 06:28:36;;;;;;;3.40;2.80;;;;;;;24.12;49.07;100916.75;5093174;28;20820;-75
2022/07/25 06:31:01;;;;;;;4.60;3.30;;;;;;;24.25;48.93;100923.25;5093204;28;20200;-75
2022/07/25 06:33:27;;;;;;;3.97;3.27;;;;;;;24.20;48.88;100918.19;5093050;28;20725;-74
2022/07/25 06:35:52;;;;;;;8.10;3.17;;;;;;;24.42;48.78;100902.56;5093193;28;20566;-75
2022/07/25 06:38:18;;;;;;;4.40;3.40;;;;;;;24.62;48.60;100903.59;5092303;28;20238;-74
2022/07/25 06:40:43;;;;;;;4.60;3.10;;;;;;;24.62;48.14;100907.94;5092794;28;20208;-74
2022/07/25 06:43:09;;;;;;;4.13;3.60;;;;;;;24.72;48.04;100901.50;5093021;28;20207;-75
2022/07/25 06:45:34;;;;;;;4.70;3.35;;;;;;;24.73;48.83;100903.19;5074742;28;20220;-75
2022/07/25 06:48:00;;;;;;;5.43;3.17;;;;;;;24.86;48.26;100902.66;5074761;28;20186;-74
2022/07/25 06:50:25;;;;;;;5.25;3.08;;;;;;;24.77;48.48;100900.38;5092564;28;20208;-74
2022/07/25 06:52:53;;;;;;;5.55;3.53;;;;;;;25.11;47.63;100894.72;5074473;28;20184;-74
2022/07/25 06:55:18;;;;;;;4.35;3.30;;;;;;;25.37;47.22;100891.94;5081062;28;20181;-74
2022/07/25 06:57:44;;;;;;;3.90;3.40;;;;;;;25.42;46.46;100893.44;5093048;28;20554;-74
2022/07/25 07:00:11;;;;;;;5.85;3.45;;;;;;;25.53;47.35;100880.75;5062513;28;20235;-74
2022/07/25 07:03:06;;;;;;;6.00;3.25;;;;;;;25.74;47.53;100879.03;5082139;28;20243;-73
2022/07/25 07:05:33;;;;;;;5.97;3.63;;;;;;;26.16;47.01;100871.97;5045209;28;20193;-74
2022/07/25 07:07:59;;;;;;;6.15;3.50;;;;;;;26.45;45.51;100875.00;5075735;28;20196;-73
2022/07/25 07:10:25;;;;;;;4.43;3.88;;;;;;;26.50;46.24;100880.03;5071813;28;20208;-73
2022/07/25 07:13:05;;;;;;;8.20;4.53;;;;;;;26.59;44.75;100871.75;5070859;28;20747;-73
2022/07/25 07:15:31;;;;;;;5.13;4.43;;;;;;;26.77;44.74;100877.03;5068289;28;20690;-73
2022/07/25 07:17:56;;;;;;;5.20;4.70;;;;;;;26.83;44.33;100858.34;5079196;28;20302;-74
2022/07/25 07:20:22;;;;;;;7.18;4.60;;;;;;;26.80;44.76;100860.28;5071693;28;20213;-73
2022/07/25 07:22:48;;;;;;;4.80;4.40;;;;;;;26.73;45.59;100862.31;5053704;28;20287;-74
2022/07/25 07:25:16;;;;;;;7.25;4.53;;;;;;;26.78;45.20;100856.84;5067104;28;20220;-73
2022/07/25 07:27:43;;;;;;;5.60;4.47;;;;;;;27.24;44.49;100846.72;5067211;28;20790;-74
2022/07/25 07:30:09;;;;;;;5.82;4.25;;;;;;;27.35;43.03;100840.94;5051521;28;20209;-74
2022/07/25 07:32:35;;;;;;;6.25;4.80;;;;;;;27.39;44.20;100839.84;5057344;28;20267;-73
2022/07/25 07:35:01;;;;;;;5.25;4.35;;;;;;;27.59;42.88;100842.34;5072013;28;20196;-72
2022/07/25 07:37:26;;;;;;;6.53;4.57;;;;;;;27.63;43.83;100839.47;5071104;28;20576;-74
2022/07/25 07:39:52;;;;;;;5.93;4.65;;;;;;;27.48;43.47;100835.00;5071294;28;20299;-74
2022/07/25 07:42:17;;;;;;;5.30;4.43;;;;;;;27.55;43.19;100846.94;5053310;28;20709;-73
2022/07/25 07:44:43;;;;;;;5.50;4.30;;;;;;;27.67;43.17;100838.38;5071333;28;20275;-72
2022/07/25 07:47:08;;;;;;;6.25;4.82;;;;;;;27.89;42.75;100836.41;5053034;28;20227;-73
2022/07/25 07:49:34;;;;;;;8.73;4.70;;;;;;;27.98;42.32;100828.03;5071176;28;20300;-73
2022/07/25 07:51:59;;;;;;;5.00;4.47;;;;;;;28.15;42.29;100824.50;5050999;28;20197;-72
2022/07/25 07:57:09;;;;;;;6.75;4.53;;;;;;;28.87;41.72;100817.91;5070870;28;20181;-74
2022/07/25 07:59:34;;;;;;;9.15;5.10;;;;;;;28.88;41.82;100809.88;5062127;28;20892;-74
2022/07/25 08:01:59;;;;;;;8.65;5.50;;;;;;;28.90;41.30;100807.16;5070973;28;20586;-73
2022/07/25 08:04:25;;;;;;;6.80;5.20;;;;;;;29.07;41.06;100800.03;5071224;28;20264;-74
2022/07/25 08:06:50;;;;;;;6.32;5.15;;;;;;;29.51;41.03;100797.41;5074745;28;20185;-72
2022/07/25 08:09:16;;;;;;;6.25;5.25;;;;;;;29.42;41.39;100800.59;5072994;28;20169;-74
2022/07/25 08:11:41;;;;;;;6.07;4.88;;;;;;;29.41;40.65;100793.63;5078586;28;20281;-73
2022/07/25 08:14:07;;;;;;;5.85;5.38;;;;;;;29.39;40.50;100790.25;5090986;28;20184;-70
2022/07/25 08:16:32;;;;;;;6.43;5.82;;;;;;;29.12;40.38;100794.47;5090807;28;20216;-72
2022/07/25 08:18:58;;;;;;;8.60;6.05;;;;;;;29.42;40.27;100788.25;5090960;28;20230;-72
2022/07/25 08:21:23;;;;;;;8.00;5.30;;;;;;;29.41;39.71;100781.28;5072620;28;20362;-72
2022/07/25 08:23:49;;;;;;;7.43;5.88;;;;;;;29.54;40.04;100784.91;5090927;28;20184;-70
2022/07/25 08:26:15;;;;;;;5.72;5.25;;;;;;;29.81;40.55;100777.13;5090433;28;20192;-72
2022/07/25 08:28:40;;;;;;;8.05;5.85;;;;;;;29.97;39.72;100775.25;5090048;28;20215;-72
2022/07/25 08:31:06;;;;;;;8.60;5.93;;;;;;;30.04;40.31;100773.94;5072110;28;20205;-72
2022/07/25 08:33:32;;;;;;;6.90;5.90;;;;;;;29.95;39.96;100770.09;5070426;28;20319;-71
2022/07/25 08:35:57;;;;;;;7.20;6.25;;;;;;;30.36;39.53;100774.59;5070425;28;20223;-71
2022/07/25 08:38:26;;;;;;;9.77;6.53;;;;;;;30.55;38.00;100764.53;5070039;28;20224;-73
2022/07/25 08:40:54;;;;;;;6.80;6.10;;;;;;;30.54;37.37;100761.06;5070050;28;20283;-72
2022/07/25 08:43:19;;;;;;;6.45;5.85;;;;;;;30.70;37.95;100756.50;5070397;28;20189;-73
2022/07/25 08:45:53;;;;;;;8.05;6.68;;;;;;;31.02;37.75;100751.78;5052458;28;20520;-73
2022/07/25 08:48:21;;;;;;;7.45;6.22;;;;;;;30.91;37.15;100752.47;5039212;28;20606;-72
2022/07/25 08:50:48;;;;;;;7.30;6.60;;;;;;;30.85;36.70;100755.50;5066041;28;20204;-72
2022/07/25 08:53:16;;;;;;;6.95;6.05;;;;;;;31.09;36.11;100750.41;5069949;28;20590;-73
2022/07/25 08:55:45;;;;;;;9.38;6.53;;;;;;;31.09;36.02;100751.25;5070481;28;20185;-73
2022/07/25 08:58:13;;;;;;;7.15;6.45;;;;;;;31.08;36.36;100746.88;5052241;28;20192;-73
2022/07/25 09:00:39;;;;;;;7.63;6.82;;;;;;;30.93;37.11;100739.16;5060896;28;20374;-70
2022/07/25 09:03:05;;;;;;;9.07;6.30;;;;;;;31.01;36.57;100739.47;5035701;28;20262;-71
2022/07/25 09:05:32;;;;;;;7.20;6.38;;;;;;;30.83;37.08;100738.88;5048455;28;20551;-67
2022/07/25 09:08:09;;;;;;;7.00;6.30;;;;;;;31.23;37.05;100731.81;5056508;28;20184;-73
2022/07/25 09:10:36;;;;;;;7.20;6.55;;;;;;;31.39;36.53;100721.91;5064193;28;20625;-70
2022/07/25 09:13:04;;;;;;;7.25;6.13;;;;;;;31.55;36.17;100723.41;5051718;28;20316;-73
2022/07/25 09:15:35;;;;;;;7.05;6.20;;;;;;;31.65;35.41;100720.94;5069625;28;20184;-72
2022/07/25 09:18:05;;;;;;;8.43;6.00;;;;;;;31.68;35.85;100718.91;5069415;28;20268;-71
2022/07/25 09:20:44;;;;;;;15.07;7.05;;;;;;;32.29;34.35;100719.00;5051297;28;20201;-73
2022/07/25 09:23:14;;;;;;;6.75;6.15;;;;;;;32.66;33.93;100712.72;5069588;28;20189;-72
2022/07/25 09:25:40;;;;;;;7.13;6.43;;;;;;;32.66;33.61;100712.72;5069620;28;20254;-70
2022/07/25 09:28:17;;;;;;;7.22;6.28;;;;;;;32.05;33.88;100706.63;5069379;28;20218;-71
2022/07/25 09:30:54;;;;;;;9.45;6.55;;;;;;;32.31;34.19;100709.13;5069154;28;20224;-73
2022/07/25 09:33:20;;;;;;;7.82;6.47;;;;;;;32.83;33.36;100703.53;5037870;28;20284;-71
2022/07/25 09:35:46;;;;;;;7.35;6.13;;;;;;;33.21;32.97;100699.66;5049184;28;20204;-73
2022/07/25 09:38:15;;;;;;;6.38;5.55;;;;;;;32.79;32.90;100696.75;5052228;28;20623;-72
2022/07/25 09:40:40;;;;;;;8.10;5.68;;;;;;;33.06;32.77;100694.69;5069108;28;20274;-73
2022/07/25 09:43:07;;;;;;;5.90;5.40;;;;;;;32.98;33.13;100697.06;5069086;28;20197;-73
2022/07/25 09:45:32;;;;;;;8.65;5.88;;;;;;;32.96;32.76;100701.66;5069031;28;20185;-73
2022/07/25 09:48:03;;;;;;;5.95;5.30;;;;;;;32.84;33.51;100690.16;5051222;28;20544;-72
2022/07/25 09:50:31;;;;;;;7.60;5.28;;;;;;;32.57;33.04;100691.31;5068966;28;20586;-73
2022/07/25 09:53:00;;;;;;;8.68;5.85;;;;;;;32.47;33.52;100691.16;5067770;28;20220;-73
2022/07/25 09:55:27;;;;;;;6.35;5.75;;;;;;;32.74;33.62;100693.56;5050716;28;20675;-72
2022/07/25 09:57:52;;;;;;;7.30;5.30;;;;;;;32.93;32.82;100685.94;5068683;28;20212;-71
2022/07/25 10:00:24;;;;;;;7.20;5.43;;;;;;;32.76;32.51;100683.66;5069055;28;20244;-73
2022/07/25 10:03:08;;;;;;;8.10;5.20;;;;;;;32.76;33.55;100681.88;5059828;28;20243;-72
2022/07/25 10:05:55;;;;;;;7.45;5.60;;;;;;;32.46;33.79;100681.47;5049087;28;20640;-72
2022/07/25 10:08:22;;;;;;;5.93;5.43;;;;;;;32.68;33.70;100675.44;5063855;28;20180;-69
2022/07/25 10:10:47;;;;;;;5.78;5.10;;;;;;;32.93;33.63;100672.66;5089291;28;20211;-72
2022/07/25 10:13:16;;;;;;;6.30;5.80;;;;;;;32.72;32.89;100671.56;5089222;28;20579;-72
2022/07/25 10:15:45;;;;;;;9.93;5.82;;;;;;;32.79;33.61;100670.22;5080573;28;20185;-72
2022/07/25 10:18:11;;;;;;;8.00;5.53;;;;;;;32.92;33.91;100674.47;5050769;28;20189;-73
2022/07/25 10:20:37;;;;;;;6.22;5.63;;;;;;;32.40;33.65;100666.00;5068786;28;20193;-71
2022/07/25 10:23:15;;;;;;;7.13;5.25;;;;;;;32.57;34.88;100662.97;5069389;28;20687;-72
2022/07/25 10:25:40;;;;;;;6.13;5.22;;;;;;;32.59;33.87;100669.00;5068896;28;20200;-72
2022/07/25 10:28:08;;;;;;;8.45;5.72;;;;;;;32.53;33.71;100666.81;5068545;28;20177;-72
2022/07/25 10:30:39;;;;;;;5.80;5.28;;;;;;;32.64;33.87;100660.72;5068664;28;20220;-72
2022/07/25 10:33:17;;;;;;;5.47;4.97;;;;;;;33.05;33.03;100667.25;5035535;28;20243;-72
2022/07/25 10:35:44;;;;;;;7.30;5.78;;;;;;;32.88;33.93;100653.59;5048826;28;20586;-72
2022/07/25 10:38:09;;;;;;;6.63;5.03;;;;;;;32.71;33.60;100657.47;5051502;28;20180;-72
2022/07/25 10:40:46;;;;;;;5.68;5.15;;;;;;;32.71;34.64;100649.53;5050564;28;20212;-72
2022/07/25 10:43:17;;;;;;;5.82;5.22;;;;;;;32.52;34.11;100649.22;5065894;28;20213;-71
2022/07/25 10:45:57;;;;;;;5.85;5.35;;;;;;;32.64;35.06;100652.75;5068672;28;20180;-70
2022/07/25 10:48:31;;;;;;;6.90;5.85;;;;;;;32.90;34.47;100641.03;5068412;28;20771;-72
2022/07/25 10:51:08;;;;;;;6.88;5.75;;;;;;;32.84;33.61;100644.16;5070011;28;20770;-72
2022/07/25 10:53:35;;;;;;;6.15;5.60;;;;;;;32.76;33.51;100641.19;5072226;28;20189;-73
2022/07/25 10:56:09;;;;;;;6.25;5.60;;;;;;;32.65;34.10;100641.16;5072208;28;20253;-71
2022/07/25 10:58:59;;;;;;;6.03;5.50;;;;;;;32.77;34.17;100632.28;5054139;28;20202;-71
2022/07/25 11:01:24;;;;;;;5.70;5.10;;;;;;;32.61;33.44;100631.75;5063022;28;20241;-71
2022/07/25 11:03:52;;;;;;;6.20;5.70;;;;;;;32.43;34.52;100627.81;5054083;28;20191;-72
2022/07/25 11:06:34;;;;;;;7.20;5.75;;;;;;;32.56;34.31;100628.59;5071949;28;20181;-73
2022/07/25 11:09:01;;;;;;;6.38;5.85;;;;;;;32.52;34.02;100625.31;5052087;28;20188;-72
2022/07/25 11:11:37;;;;;;;7.70;5.45;;;;;;;32.55;34.71;100633.03;5039958;28;20678;-72
2022/07/25 11:14:04;;;;;;;6.30;5.70;;;;;;;32.39;34.39;100632.50;5069089;28;20535;-71
2022/07/25 11:16:30;;;;;;;6.70;5.28;;;;;;;32.44;34.11;100629.50;5071627;28;20192;-71
2022/07/25 11:18:55;;;;;;;5.97;5.38;;;;;;;32.29;33.48;100630.63;5071469;28;20208;-71
2022/07/25 11:21:21;;;;;;;6.40;5.55;;;;;;;32.12;35.13;100623.03;5052390;28;20213;-72
2022/07/25 11:23:51;;;;;;;7.40;6.00;;;;;;;32.15;34.25;100626.31;5060074;28;20181;-72
2022/07/25 11:26:16;;;;;;;6.60;6.00;;;;;;;32.15;35.43;100631.63;5071662;28;20217;-73